Welcome to Northern Hawkes Bay. New Zealand.
PWS Header
      nz Flag



Hit Counter


W3C Valid W3C Valid logo


    Wairoa

Select any of the Stations below to visit their websites.










Historic Data from Weather Underground
Select the location of interest below. Wairoa is the default. Please have patience, this Data is slow to load in.
Northern Hawkes Bay Historical Data
Daily Summary for September 17, 2017 Units:  Metric    English   Both
« Previous Day
Next Day »
Daily Weekly Monthly Yearly Custom
  High: Low: Average:
Temperature: 19.8 °C 5.9 °C 12.7 °C
Dew Point: 10.9 °C 4.1 °C 7.3 °C
Humidity: 92% 49% 71%
Wind Speed: 29.4km/h 0.0km/h 7km/h
Wind Gust: 34.3km/h - -
Wind- - SSW
Pressure: 1014.8 hPa 1001.9 hPa -
Precipitation: 2.0 mm    
Historical Graphs
 
 
Tabular Data for September 17, 2017
Time Temperature Dew Point Pressure Wind Wind Speed Wind Gust Humidity Rainfall Rate (Hourly) solar
00:01 9.3 °C 5.7 °C 1012.1 hPa NNW 2.6 km/h 5.0 km/h 78% 0.0 mm 0 W/m2
00:06 9.7 °C 5.7 °C 1012.1 hPa Calm   5.0 km/h 76% 0.0 mm 0 W/m2
00:11 10.0 °C 5.4 °C 1012.1 hPa NNW 2.6 km/h 5.0 km/h 73% 0.0 mm 0 W/m2
00:16 10.2 °C 5.0 °C 1011.7 hPa NNW 6.1 km/h 9.7 km/h 70% 0.0 mm 0 W/m2
00:21 10.4 °C 4.9 °C 1012.1 hPa NW 3.5 km/h 9.7 km/h 69% 0.0 mm 0 W/m2
00:26 10.5 °C 4.8 °C 1012.1 hPa NNW 2.6 km/h 9.7 km/h 68% 0.0 mm 0 W/m2
00:31 10.7 °C 4.8 °C 1012.1 hPa Calm   7.2 km/h 67% 0.0 mm 0 W/m2
00:36 10.7 °C 4.6 °C 1012.1 hPa North 1.1 km/h 5.0 km/h 66% 0.0 mm 0 W/m2
00:41 10.5 °C 4.4 °C 1012.1 hPa North 1.1 km/h 3.5 km/h 66% 0.0 mm 0 W/m2
00:46 10.3 °C 4.4 °C 1012.1 hPa NNW 2.6 km/h 5.0 km/h 67% 0.0 mm 0 W/m2
00:51 10.1 °C 4.3 °C 1012.1 hPa NNW 1.1 km/h 5.0 km/h 67% 0.0 mm 0 W/m2
00:56 10.0 °C 4.4 °C 1012.1 hPa NNW 2.6 km/h 5.0 km/h 68% 0.0 mm 0 W/m2
01:06 9.8 °C 4.6 °C 1012.1 hPa North 1.1 km/h 5.0 km/h 70% 0.0 mm 0 W/m2
01:11 9.6 °C 4.6 °C 1012.4 hPa Calm   3.5 km/h 71% 0.0 mm 0 W/m2
01:14 9.6 °C 4.6 °C 1012.4 hPa Calm   3.5 km/h 71% 0.0 mm 0 W/m2
01:19 9.4 °C 4.4 °C 1012.1 hPa Calm   3.5 km/h 71% 0.0 mm 0 W/m2
01:24 9.5 °C 4.7 °C 1012.4 hPa NNW 2.6 km/h 5.0 km/h 72% 0.0 mm 0 W/m2
01:29 9.5 °C 4.7 °C 1012.4 hPa NW 2.6 km/h 5.0 km/h 72% 0.0 mm 0 W/m2
01:34 9.3 °C 4.5 °C 1012.1 hPa NW 1.1 km/h 6.1 km/h 72% 0.0 mm 0 W/m2
01:39 9.0 °C 4.6 °C 1012.1 hPa Calm   6.1 km/h 74% 0.0 mm 0 W/m2
01:44 8.7 °C 4.5 °C 1012.4 hPa Calm   5.0 km/h 75% 0.0 mm 0 W/m2
01:49 8.7 °C 4.7 °C 1012.4 hPa North 1.1 km/h 3.5 km/h 76% 0.0 mm 0 W/m2
01:54 8.7 °C 4.7 °C 1012.4 hPa Calm   3.5 km/h 76% 0.0 mm 0 W/m2
01:59 8.7 °C 4.7 °C 1012.1 hPa NNW 3.5 km/h 5.0 km/h 76% 0.0 mm 0 W/m2
02:04 8.4 °C 4.4 °C 1012.4 hPa NW 1.1 km/h 5.0 km/h 76% 0.0 mm 0 W/m2
02:09 8.0 °C 4.2 °C 1012.1 hPa NW 1.1 km/h 7.2 km/h 77% 0.0 mm 0 W/m2
02:14 7.8 °C 4.2 °C 1012.1 hPa NW 3.5 km/h 7.2 km/h 78% 0.0 mm 0 W/m2
02:19 7.6 °C 4.4 °C 1012.1 hPa Calm   5.0 km/h 80% 0.0 mm 0 W/m2
02:24 7.3 °C 4.3 °C 1012.1 hPa Calm   5.0 km/h 81% 0.0 mm 0 W/m2
02:29 7.3 °C 4.3 °C 1012.1 hPa Calm   2.6 km/h 81% 0.0 mm 0 W/m2
02:34 7.3 °C 4.4 °C 1012.4 hPa Calm   2.6 km/h 82% 0.0 mm 0 W/m2
02:39 7.4 °C 4.6 °C 1012.4 hPa North 1.1 km/h 3.5 km/h 82% 0.0 mm 0 W/m2
02:44 7.4 °C 4.6 °C 1012.4 hPa Calm   3.5 km/h 82% 0.0 mm 0 W/m2
02:49 7.3 °C 4.4 °C 1012.4 hPa Calm   3.5 km/h 82% 0.0 mm 0 W/m2
02:54 7.1 °C 4.2 °C 1012.4 hPa NW 1.1 km/h 3.5 km/h 82% 0.0 mm 0 W/m2
02:59 6.9 °C 4.4 °C 1012.1 hPa NW 1.1 km/h 5.0 km/h 84% 0.0 mm 0 W/m2
03:04 6.8 °C 4.3 °C 1012.1 hPa NW 1.1 km/h 5.0 km/h 84% 0.0 mm 0 W/m2
03:09 6.6 °C 4.3 °C 1012.1 hPa NW 2.6 km/h 5.0 km/h 85% 0.0 mm 0 W/m2
03:14 6.5 °C 4.2 °C 1012.4 hPa NNW 1.1 km/h 5.0 km/h 85% 0.0 mm 0 W/m2
03:19 6.3 °C 4.1 °C 1012.4 hPa Calm   3.5 km/h 86% 0.0 mm 0 W/m2
03:22 6.3 °C 4.1 °C 1012.4 hPa Calm   2.6 km/h 86% 0.0 mm 0 W/m2
03:27 6.3 °C 4.3 °C 1012.4 hPa NW 1.1 km/h 3.5 km/h 87% 0.0 mm 0 W/m2
03:32 6.3 °C 4.4 °C 1012.4 hPa NW 1.1 km/h 5.0 km/h 88% 0.0 mm 0 W/m2
03:37 6.3 °C 4.6 °C 1012.4 hPa NW 1.1 km/h 5.0 km/h 89% 0.0 mm 0 W/m2
03:42 6.2 °C 4.5 °C 1012.8 hPa NNW 1.1 km/h 3.5 km/h 89% 0.0 mm 0 W/m2
03:47 6.1 °C 4.6 °C 1012.8 hPa NNW 5.0 km/h 7.2 km/h 90% 0.0 mm 0 W/m2
03:52 6.0 °C 4.5 °C 1012.8 hPa NNW 5.0 km/h 8.7 km/h 90% 0.0 mm 0 W/m2
03:57 6.0 °C 4.7 °C 1012.8 hPa NW 6.1 km/h 9.7 km/h 91% 0.0 mm 0 W/m2
04:02 6.0 °C 4.8 °C 1012.8 hPa NW 5.0 km/h 9.7 km/h 92% 0.0 mm 0 W/m2
04:07 6.0 °C 4.8 °C 1012.8 hPa NW 5.0 km/h 9.7 km/h 92% 0.0 mm 0 W/m2
04:12 6.0 °C 4.8 °C 1012.8 hPa NW 3.5 km/h 9.7 km/h 92% 0.0 mm 0 W/m2
04:17 6.1 °C 4.9 °C 1012.8 hPa NNW 5.0 km/h 7.2 km/h 92% 0.0 mm 0 W/m2
04:22 6.1 °C 4.9 °C 1012.8 hPa NW 3.5 km/h 12.2 km/h 92% 0.0 mm 0 W/m2
04:27 6.1 °C 4.9 °C 1013.1 hPa NW 7.2 km/h 12.2 km/h 92% 0.0 mm 0 W/m2
04:32 6.3 °C 5.1 °C 1013.1 hPa NW 6.1 km/h 11.1 km/h 92% 0.0 mm 0 W/m2
04:37 6.7 °C 5.3 °C 1012.8 hPa NW 3.5 km/h 11.1 km/h 91% 0.0 mm 0 W/m2
04:42 6.9 °C 5.4 °C 1012.8 hPa NNW 3.5 km/h 9.7 km/h 90% 0.0 mm 0 W/m2
04:47 6.9 °C 5.2 °C 1012.8 hPa NNW 3.5 km/h 8.7 km/h 89% 0.0 mm 0 W/m2
04:52 6.7 °C 4.7 °C 1013.1 hPa NNW 1.1 km/h 8.7 km/h 87% 0.0 mm 0 W/m2
04:57 6.5 °C 4.5 °C 1013.1 hPa NNW 2.6 km/h 8.7 km/h 87% 0.0 mm 0 W/m2
05:02 6.3 °C 4.4 °C 1013.1 hPa NNW 5.0 km/h 7.2 km/h 88% 0.0 mm 0 W/m2
05:07 6.3 °C 4.4 °C 1013.4 hPa NW 5.0 km/h 9.7 km/h 88% 0.0 mm 0 W/m2
05:12 6.2 °C 4.5 °C 1013.1 hPa NW 7.2 km/h 9.7 km/h 89% 0.0 mm 0 W/m2
05:17 6.2 °C 4.7 °C 1013.4 hPa NW 5.0 km/h 9.7 km/h 90% 0.0 mm 0 W/m2
05:27 6.1 °C 4.6 °C 1013.4 hPa NNW 5.0 km/h 9.7 km/h 90% 0.0 mm 0 W/m2
05:32 6.0 °C 4.5 °C 1013.4 hPa NNW 7.2 km/h 11.1 km/h 90% 0.0 mm 0 W/m2
05:37 6.0 °C 4.5 °C 1013.4 hPa NNW 8.7 km/h 11.1 km/h 90% 0.0 mm 0 W/m2
05:42 5.9 °C 4.7 °C 1013.4 hPa NW 6.1 km/h 12.2 km/h 92% 0.0 mm 0 W/m2
05:47 5.9 °C 4.7 °C 1013.4 hPa NW 3.5 km/h 12.2 km/h 92% 0.0 mm 0 W/m2
05:52 6.0 °C 4.8 °C 1013.4 hPa NW 2.6 km/h 11.1 km/h 92% 0.0 mm 0 W/m2
05:57 6.0 °C 4.8 °C 1013.4 hPa NNW 5.0 km/h 9.7 km/h 92% 0.0 mm 0 W/m2
06:02 6.1 °C 4.9 °C 1013.4 hPa NNW 6.1 km/h 9.7 km/h 92% 0.0 mm 0 W/m2
06:07 6.1 °C 4.9 °C 1013.8 hPa NNW 6.1 km/h 11.1 km/h 92% 0.0 mm 0 W/m2
06:12 6.1 °C 4.9 °C 1013.8 hPa NNW 7.2 km/h 14.8 km/h 92% 0.0 mm 1 W/m2
06:17 6.1 °C 4.9 °C 1013.8 hPa NW 5.0 km/h 14.8 km/h 92% 0.0 mm 4 W/m2
06:22 6.0 °C 4.8 °C 1013.8 hPa NNW 2.6 km/h 13.4 km/h 92% 0.0 mm 8 W/m2
06:32 6.0 °C 4.8 °C 1013.8 hPa North 3.5 km/h 7.2 km/h 92% 0.0 mm 17 W/m2
06:37 6.0 °C 4.8 °C 1013.8 hPa NNW 6.1 km/h 11.1 km/h 92% 0.0 mm 26 W/m2
06:42 6.1 °C 4.9 °C 1013.4 hPa NW 5.0 km/h 11.1 km/h 92% 0.0 mm 34 W/m2
06:47 6.2 °C 5.0 °C 1013.8 hPa NNW 3.5 km/h 11.1 km/h 92% 0.0 mm 50 W/m2
06:52 6.4 °C 5.2 °C 1013.8 hPa NNW 5.0 km/h 11.1 km/h 92% 0.0 mm 48 W/m2
06:57 6.5 °C 5.3 °C 1013.8 hPa NNW 2.6 km/h 8.7 km/h 92% 0.0 mm 50 W/m2
07:02 6.7 °C 5.3 °C 1013.8 hPa North 5.0 km/h 9.7 km/h 91% 0.0 mm 77 W/m2
07:07 6.9 °C 5.6 °C 1013.8 hPa North 7.2 km/h 9.7 km/h 91% 0.0 mm 85 W/m2
07:12 7.2 °C 5.5 °C 1013.8 hPa North 6.1 km/h 11.1 km/h 89% 0.0 mm 105 W/m2
07:17 7.5 °C 5.7 °C 1014.1 hPa North 6.1 km/h 11.1 km/h 88% 0.0 mm 102 W/m2
07:22 7.6 °C 5.6 °C 1014.1 hPa North 2.6 km/h 9.7 km/h 87% 0.0 mm 73 W/m2
07:27 7.7 °C 5.5 °C 1014.1 hPa NNW 7.2 km/h 8.7 km/h 86% 0.0 mm 128 W/m2
07:32 8.0 °C 5.8 °C 1014.1 hPa NW 6.1 km/h 9.7 km/h 86% 0.0 mm 120 W/m2
07:37 8.2 °C 6.0 °C 1014.1 hPa NW 5.0 km/h 11.1 km/h 86% 0.0 mm 158 W/m2
07:42 8.6 °C 6.4 °C 1014.4 hPa NNW 7.2 km/h 11.1 km/h 86% 0.0 mm 176 W/m2
07:47 9.2 °C 6.7 °C 1014.1 hPa NNW 5.0 km/h 12.2 km/h 84% 0.0 mm 159 W/m2
07:52 9.8 °C 6.9 °C 1014.4 hPa NNW 6.1 km/h 12.2 km/h 82% 0.0 mm 160 W/m2
07:57 10.0 °C 6.6 °C 1014.1 hPa NNW 7.2 km/h 13.4 km/h 79% 0.0 mm 168 W/m2
08:02 10.2 °C 6.7 °C 1014.1 hPa NNW 6.1 km/h 13.4 km/h 79% 0.0 mm 178 W/m2
08:07 10.4 °C 6.7 °C 1014.1 hPa NNW 9.7 km/h 14.8 km/h 78% 0.0 mm 153 W/m2
08:12 10.4 °C 6.6 °C 1014.1 hPa NNW 7.2 km/h 14.8 km/h 77% 0.0 mm 148 W/m2
08:17 10.6 °C 6.7 °C 1014.4 hPa North 3.5 km/h 13.4 km/h 77% 0.0 mm 179 W/m2
08:22 11.0 °C 6.9 °C 1014.4 hPa NNW 5.0 km/h 13.4 km/h 76% 0.0 mm 189 W/m2
08:27 11.5 °C 7.2 °C 1014.4 hPa NNW 7.2 km/h 12.2 km/h 75% 0.0 mm 211 W/m2
08:32 12.0 °C 7.1 °C 1014.1 hPa NNW 9.7 km/h 13.4 km/h 72% 0.0 mm 240 W/m2
08:37 12.5 °C 7.4 °C 1014.8 hPa NNW 6.1 km/h 14.8 km/h 71% 0.0 mm 234 W/m2
08:42 12.9 °C 7.2 °C 1014.4 hPa NNW 7.2 km/h 15.8 km/h 68% 0.0 mm 259 W/m2
08:47 13.4 °C 7.4 °C 1014.8 hPa North 6.1 km/h 18.3 km/h 67% 0.0 mm 273 W/m2
08:52 14.0 °C 7.3 °C 1014.4 hPa North 7.2 km/h 18.3 km/h 64% 0.0 mm 258 W/m2
08:57 14.2 °C 7.5 °C 1014.8 hPa North 9.7 km/h 17.2 km/h 64% 0.0 mm 274 W/m2
09:07 14.2 °C 6.6 °C 1014.8 hPa North 7.2 km/h 19.5 km/h 60% 0.0 mm 233 W/m2
09:12 14.6 °C 6.9 °C 1014.8 hPa North 7.2 km/h 19.5 km/h 60% 0.0 mm 243 W/m2
09:17 14.9 °C 7.2 °C 1014.8 hPa North 8.7 km/h 17.2 km/h 60% 0.0 mm 226 W/m2
09:22 14.9 °C 6.9 °C 1014.8 hPa North 6.1 km/h 17.2 km/h 59% 0.0 mm 191 W/m2
09:32 14.9 °C 7.4 °C 1014.4 hPa North 7.2 km/h 18.3 km/h 61% 0.0 mm 213 W/m2
09:37 15.0 °C 7.1 °C 1014.4 hPa NNE 9.7 km/h 17.2 km/h 59% 0.0 mm 220 W/m2
09:42 14.9 °C 6.7 °C 1014.4 hPa NNE 6.1 km/h 18.3 km/h 58% 0.0 mm 201 W/m2
09:47 14.9 °C 7.2 °C 1014.1 hPa North 6.1 km/h 20.9 km/h 60% 0.0 mm 191 W/m2
09:52 14.9 °C 7.7 °C 1014.1 hPa North 8.7 km/h 20.9 km/h 62% 0.0 mm 175 W/m2
09:57 14.9 °C 7.7 °C 1014.1 hPa North 8.7 km/h 17.2 km/h 62% 0.0 mm 177 W/m2
10:02 15.0 °C 7.1 °C 1014.1 hPa North 9.7 km/h 18.3 km/h 59% 0.0 mm 192 W/m2
10:07 15.2 °C 7.2 °C 1013.8 hPa North 6.1 km/h 18.3 km/h 59% 0.0 mm 200 W/m2
10:12 15.4 °C 6.9 °C 1013.8 hPa NNE 7.2 km/h 14.8 km/h 57% 0.0 mm 203 W/m2
10:17 15.5 °C 7.0 °C 1013.8 hPa NNE 6.1 km/h 14.8 km/h 57% 0.0 mm 204 W/m2
10:22 15.5 °C 7.0 °C 1013.4 hPa North 6.1 km/h 17.2 km/h 57% 0.0 mm 212 W/m2
10:27 15.7 °C 7.2 °C 1013.4 hPa North 6.1 km/h 17.2 km/h 57% 0.0 mm 226 W/m2
10:32 15.9 °C 7.4 °C 1013.4 hPa North 13.4 km/h 19.5 km/h 57% 0.0 mm 241 W/m2
10:37 16.0 °C 7.2 °C 1013.4 hPa North 11.1 km/h 20.9 km/h 56% 0.0 mm 239 W/m2
10:42 16.0 °C 7.2 °C 1013.4 hPa NNW 3.5 km/h 20.9 km/h 56% 0.0 mm 229 W/m2
10:47 16.2 °C 7.2 °C 1013.4 hPa NNW 5.0 km/h 20.9 km/h 55% 0.0 mm 217 W/m2
10:52 16.2 °C 6.9 °C 1013.1 hPa North 8.7 km/h 21.9 km/h 54% 0.0 mm 206 W/m2
10:57 16.1 °C 6.8 °C 1013.4 hPa NNW 8.7 km/h 21.9 km/h 54% 0.0 mm 212 W/m2
11:02 16.0 °C 6.7 °C 1013.4 hPa NW 5.0 km/h 24.5 km/h 54% 0.0 mm 214 W/m2
11:07 16.2 °C 7.4 °C 1013.4 hPa NNW 8.7 km/h 24.5 km/h 56% 0.0 mm 227 W/m2
11:12 16.4 °C 7.6 °C 1013.4 hPa North 3.5 km/h 13.4 km/h 56% 0.0 mm 240 W/m2
11:17 16.6 °C 7.6 °C 1013.1 hPa North 6.1 km/h 12.2 km/h 55% 0.0 mm 275 W/m2
11:22 16.9 °C 7.6 °C 1013.4 hPa NNE 3.5 km/h 12.2 km/h 54% 0.0 mm 293 W/m2
11:27 17.2 °C 7.0 °C 1013.4 hPa NNE 6.1 km/h 13.4 km/h 51% 0.0 mm 364 W/m2
11:32 17.3 °C 7.1 °C 1013.4 hPa North 3.5 km/h 13.4 km/h 51% 0.0 mm 401 W/m2
11:37 17.5 °C 7.3 °C 1013.1 hPa North 5.0 km/h 11.1 km/h 51% 0.0 mm 434 W/m2
11:42 18.2 °C 7.9 °C 1013.1 hPa NNE 3.5 km/h 11.1 km/h 51% 0.0 mm 480 W/m2
11:47 18.0 °C 7.4 °C 1013.1 hPa North 12.2 km/h 19.5 km/h 50% 0.0 mm 406 W/m2
11:52 17.3 °C 7.1 °C 1012.8 hPa North 15.8 km/h 24.5 km/h 51% 0.0 mm 331 W/m2
11:57 17.0 °C 7.1 °C 1012.8 hPa North 12.2 km/h 24.5 km/h 52% 0.0 mm 456 W/m2
12:02 17.4 °C 7.7 °C 1012.8 hPa North 7.2 km/h 24.5 km/h 53% 0.0 mm 436 W/m2
12:07 17.7 °C 7.7 °C 1012.8 hPa North 13.4 km/h 23.3 km/h 52% 0.0 mm 454 W/m2
12:12 17.3 °C 7.3 °C 1012.4 hPa North 11.1 km/h 24.5 km/h 52% 0.0 mm 331 W/m2
12:17 17.2 °C 7.3 °C 1012.8 hPa NNW 8.7 km/h 27.0 km/h 52% 0.0 mm 256 W/m2
12:22 16.8 °C 7.2 °C 1012.4 hPa North 8.7 km/h 27.0 km/h 53% 0.0 mm 212 W/m2
12:27 16.3 °C 7.0 °C 1012.4 hPa North 12.2 km/h 25.6 km/h 54% 0.0 mm 169 W/m2
12:32 15.9 °C 7.2 °C 1012.4 hPa NNW 7.2 km/h 25.6 km/h 56% 0.0 mm 162 W/m2
12:37 16.0 °C 6.9 °C 1012.1 hPa North 13.4 km/h 21.9 km/h 55% 0.0 mm 165 W/m2
12:42 16.0 °C 6.9 °C 1012.1 hPa North 9.7 km/h 21.9 km/h 55% 0.0 mm 163 W/m2
12:47 16.0 °C 7.2 °C 1012.1 hPa NNW 7.2 km/h 20.9 km/h 56% 0.0 mm 164 W/m2
12:52 16.1 °C 7.3 °C 1011.7 hPa NNW 7.2 km/h 21.9 km/h 56% 0.0 mm 167 W/m2
12:57 16.2 °C 7.4 °C 1011.7 hPa North 6.1 km/h 21.9 km/h 56% 0.0 mm 166 W/m2
13:02 16.2 °C 7.2 °C 1011.4 hPa NNW 5.0 km/h 15.8 km/h 55% 0.0 mm 171 W/m2
13:21 16.6 °C 7.0 °C 1011.1 hPa NNE 3.5 km/h 12.2 km/h 53% 0.0 mm 180 W/m2
13:26 16.9 °C 7.3 °C 1011.1 hPa NNE 6.1 km/h 12.2 km/h 53% 0.0 mm 205 W/m2
13:31 16.9 °C 7.3 °C 1011.1 hPa North 6.1 km/h 12.2 km/h 53% 0.0 mm 197 W/m2
13:36 17.2 °C 7.6 °C 1011.1 hPa NNE 7.2 km/h 12.2 km/h 53% 0.0 mm 181 W/m2
13:41 17.0 °C 7.3 °C 1010.7 hPa NNE 5.0 km/h 12.2 km/h 53% 0.0 mm 171 W/m2
13:46 16.9 °C 7.6 °C 1011.1 hPa NNE 6.1 km/h 12.2 km/h 54% 0.0 mm 168 W/m2
14:05 16.6 °C 7.8 °C 1010.7 hPa NNE 5.0 km/h 13.4 km/h 56% 0.0 mm 167 W/m2
14:10 16.7 °C 7.9 °C 1010.7 hPa NNE 8.7 km/h 13.4 km/h 56% 0.0 mm 152 W/m2
14:16 16.6 °C 8.1 °C 1010.4 hPa NNE 8.7 km/h 17.2 km/h 57% 0.0 mm 158 W/m2
14:21 16.7 °C 8.4 °C 1010.4 hPa NNE 7.2 km/h 17.2 km/h 58% 0.0 mm 211 W/m2
14:26 17.6 °C 9.2 °C 1010.4 hPa NNE 3.5 km/h 13.4 km/h 58% 0.0 mm 238 W/m2
14:31 18.1 °C 8.9 °C 1010.4 hPa NE 6.1 km/h 14.8 km/h 55% 0.0 mm 207 W/m2
14:36 18.9 °C 9.4 °C 1010.0 hPa NE 3.5 km/h 18.3 km/h 54% 0.0 mm 181 W/m2
14:41 19.6 °C 8.6 °C 1010.0 hPa NE 1.1 km/h 18.3 km/h 49% 0.0 mm 142 W/m2
14:46 19.8 °C 8.8 °C 1010.0 hPa NE 1.1 km/h 15.8 km/h 49% 0.0 mm 131 W/m2
14:51 18.9 °C 8.8 °C 1009.7 hPa NNE 6.1 km/h 15.8 km/h 52% 0.0 mm 120 W/m2
14:56 18.0 °C 8.8 °C 1009.7 hPa North 8.7 km/h 15.8 km/h 55% 0.0 mm 130 W/m2
15:01 17.9 °C 8.7 °C 1009.7 hPa North 6.1 km/h 15.8 km/h 55% 0.0 mm 158 W/m2
15:06 18.0 °C 9.1 °C 1009.7 hPa North 6.1 km/h 14.8 km/h 56% 0.0 mm 142 W/m2
15:11 17.8 °C 8.9 °C 1009.7 hPa NNW 6.1 km/h 9.7 km/h 56% 0.0 mm 162 W/m2
15:17 17.8 °C 8.9 °C 1009.7 hPa NNW 18.3 km/h 23.3 km/h 56% 0.0 mm 153 W/m2
15:22 17.8 °C 8.9 °C 1009.4 hPa NNW 12.2 km/h 27.0 km/h 56% 0.0 mm 231 W/m2
15:27 18.2 °C 9.0 °C 1009.4 hPa NNW 23.3 km/h 30.6 km/h 55% 0.0 mm 341 W/m2
15:32 18.6 °C 8.8 °C 1009.4 hPa NW 12.2 km/h 33.1 km/h 53% 0.0 mm 362 W/m2
15:35 18.8 °C 9.1 °C 1009.4 hPa NW 6.1 km/h 33.1 km/h 53% 0.0 mm 153 W/m2
15:40 18.4 °C 8.7 °C 1009.0 hPa NNW 14.8 km/h 24.5 km/h 53% 0.0 mm 330 W/m2
15:45 19.1 °C 8.7 °C 1009.0 hPa NNW 29.4 km/h 34.3 km/h 51% 0.0 mm 296 W/m2
15:49 19.1 °C 8.4 °C 1009.0 hPa NW 14.8 km/h 34.3 km/h 50% 0.0 mm 282 W/m2
15:59 18.5 °C 8.4 °C 1008.7 hPa NNW 13.4 km/h 25.6 km/h 52% 0.0 mm 234 W/m2
16:04 18.7 °C 8.1 °C 1008.7 hPa NNW 14.8 km/h 27.0 km/h 50% 0.0 mm 204 W/m2
16:09 18.5 °C 8.2 °C 1008.4 hPa North 9.7 km/h 33.1 km/h 51% 0.0 mm 178 W/m2
16:14 18.8 °C 8.7 °C 1008.7 hPa North 13.4 km/h 33.1 km/h 52% 0.0 mm 163 W/m2
16:19 18.5 °C 8.2 °C 1008.4 hPa NNW 13.4 km/h 25.6 km/h 51% 0.0 mm 157 W/m2
16:24 18.6 °C 8.3 °C 1008.4 hPa NNW 9.7 km/h 25.6 km/h 51% 0.0 mm 145 W/m2
16:29 18.5 °C 8.7 °C 1008.4 hPa NW 11.1 km/h 23.3 km/h 53% 0.0 mm 135 W/m2
16:34 18.5 °C 8.4 °C 1008.4 hPa NNW 11.1 km/h 23.3 km/h 52% 0.0 mm 125 W/m2
16:39 18.4 °C 8.4 °C 1008.4 hPa North 11.1 km/h 23.3 km/h 52% 0.0 mm 112 W/m2
16:44 18.2 °C 8.7 °C 1008.4 hPa North 8.7 km/h 21.9 km/h 54% 0.0 mm 100 W/m2
16:49 18.0 °C 8.3 °C 1008.4 hPa North 11.1 km/h 21.9 km/h 53% 0.0 mm 97 W/m2
16:54 17.6 °C 8.2 °C 1008.0 hPa North 12.2 km/h 21.9 km/h 54% 0.0 mm 63 W/m2
16:59 16.7 °C 8.4 °C 1008.4 hPa NNW 6.1 km/h 21.9 km/h 58% 0.0 mm 44 W/m2
17:04 15.8 °C 8.8 °C 1008.4 hPa NNW 15.8 km/h 27.0 km/h 63% 0.0 mm 44 W/m2
17:09 15.5 °C 8.9 °C 1008.4 hPa North 12.2 km/h 27.0 km/h 65% 0.0 mm 52 W/m2
17:14 15.8 °C 9.2 °C 1008.4 hPa North 13.4 km/h 25.6 km/h 65% 0.0 mm 51 W/m2
17:19 15.7 °C 9.4 °C 1008.4 hPa NNW 14.8 km/h 27.0 km/h 66% 0.0 mm 33 W/m2
17:24 15.1 °C 9.2 °C 1008.4 hPa NNW 13.4 km/h 29.4 km/h 68% 0.0 mm 28 W/m2
17:29 14.9 °C 9.5 °C 1008.4 hPa North 18.3 km/h 29.4 km/h 70% 0.0 mm 17 W/m2
17:39 14.5 °C 9.7 °C 1008.0 hPa NNW 19.5 km/h 33.1 km/h 73% 0.0 mm 9 W/m2
17:44 14.5 °C 9.7 °C 1008.0 hPa NNW 13.4 km/h 33.1 km/h 73% 0.0 mm 7 W/m2
17:49 14.6 °C 9.8 °C 1008.4 hPa North 11.1 km/h 27.0 km/h 73% 0.0 mm 4 W/m2
17:54 14.5 °C 9.7 °C 1008.4 hPa North 9.7 km/h 25.6 km/h 73% 0.0 mm 2 W/m2
17:59 14.5 °C 9.7 °C 1008.4 hPa North 15.8 km/h 25.6 km/h 73% 0.0 mm 0 W/m2
18:04 14.6 °C 9.6 °C 1008.4 hPa NNE 13.4 km/h 21.9 km/h 72% 0.0 mm 0 W/m2
18:09 14.6 °C 9.6 °C 1008.4 hPa North 12.2 km/h 21.9 km/h 72% 0.0 mm 0 W/m2
18:14 14.7 °C 9.5 °C 1008.4 hPa North 7.2 km/h 20.9 km/h 71% 0.0 mm 0 W/m2
18:24 14.9 °C 9.3 °C 1008.0 hPa North 6.1 km/h 19.5 km/h 69% 0.0 mm 0 W/m2
18:29 14.9 °C 9.3 °C 1008.0 hPa NNE 2.6 km/h 18.3 km/h 69% 0.0 mm 0 W/m2
18:34 14.8 °C 9.2 °C 1007.7 hPa NE 8.7 km/h 13.4 km/h 69% 0.0 mm 0 W/m2
18:39 14.8 °C 9.2 °C 1008.0 hPa NE 5.0 km/h 17.2 km/h 69% 0.0 mm 0 W/m2
18:44 14.7 °C 9.1 °C 1007.7 hPa NE 7.2 km/h 19.5 km/h 69% 0.0 mm 0 W/m2
18:49 14.7 °C 9.1 °C 1007.7 hPa NE 5.0 km/h 19.5 km/h 69% 0.0 mm 0 W/m2
18:54 14.7 °C 9.1 °C 1007.3 hPa NNE 6.1 km/h 11.1 km/h 69% 0.0 mm 0 W/m2
18:59 14.7 °C 9.1 °C 1007.3 hPa NE 12.2 km/h 23.3 km/h 69% 0.0 mm 0 W/m2
19:04 14.7 °C 9.1 °C 1007.3 hPa NE 11.1 km/h 23.3 km/h 69% 0.0 mm 0 W/m2
19:09 14.6 °C 9.0 °C 1007.3 hPa ENE 3.5 km/h 18.3 km/h 69% 0.0 mm 0 W/m2
19:14 14.5 °C 9.1 °C 1007.3 hPa ENE 7.2 km/h 19.5 km/h 70% 0.0 mm 0 W/m2
19:19 14.4 °C 9.2 °C 1007.3 hPa NE 9.7 km/h 20.9 km/h 71% 0.0 mm 0 W/m2
19:24 14.1 °C 9.3 °C 1007.3 hPa NE 12.2 km/h 20.9 km/h 73% 0.0 mm 0 W/m2
19:29 13.9 °C 9.7 °C 1007.3 hPa ENE 7.2 km/h 18.3 km/h 76% 0.0 mm 0 W/m2
19:34 13.7 °C 9.7 °C 1007.0 hPa NE 6.1 km/h 19.5 km/h 77% 0.0 mm 0 W/m2
19:39 13.7 °C 10.1 °C 1006.7 hPa NE 11.1 km/h 19.5 km/h 79% 0.0 mm 0 W/m2
19:44 13.5 °C 10.1 °C 1006.7 hPa ENE 8.7 km/h 25.6 km/h 80% 0.0 mm 0 W/m2
19:49 13.4 °C 10.0 °C 1006.7 hPa ENE 12.2 km/h 25.6 km/h 80% 0.0 mm 0 W/m2
19:54 13.4 °C 10.2 °C 1006.7 hPa NE 11.1 km/h 25.6 km/h 81% 0.0 mm 0 W/m2
20:14 13.5 °C 10.5 °C 1006.0 hPa NE 7.2 km/h 19.5 km/h 82% 0.0 mm 0 W/m2
20:17 13.5 °C 10.3 °C 1006.0 hPa ENE 7.2 km/h 19.5 km/h 81% 0.0 mm 0 W/m2
20:22 13.5 °C 10.3 °C 1006.0 hPa ENE 7.2 km/h 17.2 km/h 81% 0.0 mm 0 W/m2
20:27 13.6 °C 10.2 °C 1005.6 hPa ENE 12.2 km/h 17.2 km/h 80% 0.0 mm 0 W/m2
20:32 13.6 °C 10.2 °C 1005.6 hPa NE 11.1 km/h 21.9 km/h 80% 0.0 mm 0 W/m2
20:37 13.6 °C 10.1 °C 1005.6 hPa NE 7.2 km/h 21.9 km/h 79% 0.0 mm 0 W/m2
20:42 13.6 °C 10.1 °C 1005.6 hPa NE 12.2 km/h 21.9 km/h 79% 0.0 mm 0 W/m2
20:47 13.6 °C 10.1 °C 1005.6 hPa ENE 5.0 km/h 21.9 km/h 79% 0.0 mm 0 W/m2
20:52 13.9 °C 10.1 °C 1005.3 hPa ENE 11.1 km/h 19.5 km/h 78% 0.0 mm 0 W/m2
20:57 13.9 °C 9.9 °C 1005.3 hPa ENE 14.8 km/h 20.9 km/h 77% 0.0 mm 0 W/m2
21:02 14.1 °C 9.7 °C 1005.0 hPa ENE 9.7 km/h 23.3 km/h 75% 0.0 mm 0 W/m2
21:07 14.2 °C 9.8 °C 1005.0 hPa ENE 8.7 km/h 23.3 km/h 75% 0.0 mm 0 W/m2
21:12 14.2 °C 9.8 °C 1004.6 hPa ENE 14.8 km/h 23.3 km/h 75% 0.0 mm 0 W/m2
21:17 14.2 °C 9.6 °C 1004.6 hPa ENE 11.1 km/h 23.3 km/h 74% 0.0 mm 0 W/m2
21:22 14.2 °C 9.6 °C 1004.6 hPa NE 11.1 km/h 23.3 km/h 74% 0.0 mm 0 W/m2
21:42 14.1 °C 9.7 °C 1003.9 hPa NE 11.1 km/h 23.3 km/h 75% 0.0 mm 0 W/m2
21:47 14.1 °C 9.7 °C 1003.6 hPa NE 13.4 km/h 21.9 km/h 75% 0.0 mm 0 W/m2
21:52 14.2 °C 9.6 °C 1003.6 hPa NE 13.4 km/h 21.9 km/h 74% 0.0 mm 0 W/m2
21:57 14.3 °C 9.7 °C 1003.6 hPa ENE 9.7 km/h 19.5 km/h 74% 0.0 mm 0 W/m2
22:02 14.3 °C 9.7 °C 1002.9 hPa NE 7.2 km/h 19.5 km/h 74% 0.0 mm 0 W/m2
22:07 14.3 °C 9.7 °C 1002.9 hPa ENE 7.2 km/h 17.2 km/h 74% 0.0 mm 0 W/m2
22:12 14.3 °C 9.7 °C 1002.9 hPa NE 9.7 km/h 17.2 km/h 74% 0.0 mm 0 W/m2
22:17 14.3 °C 9.7 °C 1002.6 hPa NE 3.5 km/h 17.2 km/h 74% 0.0 mm 0 W/m2
22:22 14.3 °C 9.7 °C 1002.6 hPa NE 9.7 km/h 17.2 km/h 74% 0.0 mm 0 W/m2
22:27 14.3 °C 9.7 °C 1002.6 hPa NE 7.2 km/h 17.2 km/h 74% 0.0 mm 0 W/m2
22:32 14.3 °C 9.7 °C 1002.6 hPa NE 8.7 km/h 17.2 km/h 74% 0.0 mm 0 W/m2
22:37 14.3 °C 9.7 °C 1002.6 hPa NE 7.2 km/h 14.8 km/h 74% 0.0 mm 0 W/m2
22:42 14.3 °C 9.7 °C 1002.3 hPa NE 5.0 km/h 14.8 km/h 74% 0.0 mm 0 W/m2
22:47 14.3 °C 9.7 °C 1001.9 hPa NE 3.5 km/h 19.5 km/h 74% 0.0 mm 0 W/m2
22:53 14.6 °C 9.8 °C 1001.9 hPa NE 9.7 km/h 19.5 km/h 73% 0.0 mm 0 W/m2
22:58 14.7 °C 9.9 °C 1001.9 hPa NE 8.7 km/h 18.3 km/h 73% 0.0 mm 0 W/m2
23:03 14.7 °C 9.7 °C 1001.9 hPa NE 7.2 km/h 20.9 km/h 72% 0.0 mm 0 W/m2
23:08 14.8 °C 9.8 °C 1001.9 hPa NNE 9.7 km/h 20.9 km/h 72% 0.0 mm 0 W/m2
23:13 14.9 °C 9.9 °C 1002.3 hPa NNE 13.4 km/h 20.9 km/h 72% 0.0 mm 0 W/m2
23:18 14.9 °C 9.9 °C 1002.3 hPa North 11.1 km/h 20.9 km/h 72% 0.0 mm 0 W/m2
23:28 14.4 °C 10.2 °C 1002.3 hPa North 9.7 km/h 20.9 km/h 76% 0.0 mm 0 W/m2
23:33 13.8 °C 10.6 °C 1002.6 hPa North 6.1 km/h 19.5 km/h 81% 0.3 mm 0 W/m2
23:38 13.4 °C 10.9 °C 1002.9 hPa North 11.1 km/h 21.9 km/h 85% 0.5 mm 0 W/m2
23:43 13.0 °C 10.7 °C 1002.9 hPa NW 5.0 km/h 21.9 km/h 86% 1.3 mm 0 W/m2
23:48 12.5 °C 10.7 °C 1002.9 hPa NW 5.0 km/h 19.5 km/h 89% 1.5 mm 0 W/m2
23:53 12.3 °C 10.9 °C 1003.3 hPa NW 13.4 km/h 20.9 km/h 91% 1.8 mm 0 W/m2
23:58 12.3 °C 10.9 °C 1003.3 hPa NW 9.7 km/h 20.9 km/h 91% 2.0 mm 0 W/m2
Northern Hawkes Bay. New Zealand Historic Data
Compliments of Weather Underground - 2 mb